Center Harbor, New Hampshire
Current Conditions -  °F | °C
As of 12:55 PM on Monday 24 Nov 2014 (Local Time) from KLCI Reporting Station
Broken Clouds Broken Clouds  
Wind Chill: 61°   Ceiling: 2100
Heat Index: 61°   Visibility: 10mi
Dew Point: 57°   Wind: 12mph
Humidity: 88%   Direction: 200°SSW
Pressure: 29.56"   Gusts: NA
Location:  43.71°N, 71.46°W
Report Text: KLCI 241755Z AUTO 20010KT 10SM FEW011 SCT014 BKN021 16/14 A2956 RMK AO1 60014 10160 20060 57037
Loading
Personal Weather Stations






























Interactive Weather Map New forecast layout! Learn more

10-Day Weather Forecast

Advertisements
Track Severe Weather on mobile